sensor_id;sensor_type;location;lat;lon;timestamp;temperature;humidity
71551;DHT22;59367;48.414;9.872;2023-04-01T00:00:45;10.97009277;63.45672607
71551;DHT22;59367;48.414;9.872;2023-04-01T00:01:52;10.9407196;63.2598877
71551;DHT22;59367;48.414;9.872;2023-04-01T00:03:00;10.97009277;63.32397461
71551;DHT22;59367;48.414;9.872;2023-04-01T00:04:07;11.02616882;63.42468262
71551;DHT22;59367;48.414;9.872;2023-04-01T00:05:15;11.01281738;63.24768066
71551;DHT22;59367;48.414;9.872;2023-04-01T00:06:23;10.95674133;63.36517334
71551;DHT22;59367;48.414;9.872;2023-04-01T00:07:30;10.9407196;63.37127686
71551;DHT22;59367;48.414;9.872;2023-04-01T00:08:37;10.9407196;63.3392334
71551;DHT22;59367;48.414;9.872;2023-04-01T00:09:44;10.98344421;63.21411133
71551;DHT22;59367;48.414;9.872;2023-04-01T00:10:52;10.98344421;63.07220459
71551;DHT22;59367;48.414;9.872;2023-04-01T00:11:59;10.98344421;62.9989624
71551;DHT22;59367;48.414;9.872;2023-04-01T00:13:06;10.92736816;63.02185059
71551;DHT22;59367;48.414;9.872;2023-04-01T00:14:14;10.92736816;62.98065186
71551;DHT22;59367;48.414;9.872;2023-04-01T00:15:22;10.95674133;63.00506592
71551;DHT22;59367;48.414;9.872;2023-04-01T00:16:29;10.95674133;62.84332275
71551;DHT22;59367;48.414;9.872;2023-04-01T00:17:36;10.97009277;62.98675537
71551;DHT22;59367;48.414;9.872;2023-04-01T00:18:44;10.95674133;63.11798096
71551;DHT22;59367;48.414;9.872;2023-04-01T00:19:51;10.97009277;63.18206787
71551;DHT22;59367;48.414;9.872;2023-04-01T00:20:58;10.95674133;63.34228516
71551;DHT22;59367;48.414;9.872;2023-04-01T00:22:05;10.97009277;63.15155029
71551;DHT22;59367;48.414;9.872;2023-04-01T00:23:13;10.97009277;63.37585449
71551;DHT22;59367;48.414;9.872;2023-04-01T00:24:21;10.99946594;63.60473633
71551;DHT22;59367;48.414;9.872;2023-04-01T00:25:28;10.97009277;63.68255615
71551;DHT22;59367;48.414;9.872;2023-04-01T00:26:36;10.97009277;63.66271973
71551;DHT22;59367;48.414;9.872;2023-04-01T00:27:43;10.9407196;63.99383545
71551;DHT22;59367;48.414;9.872;2023-04-01T00:28:51;10.9407196;64.04418945
71551;DHT22;59367;48.414;9.872;2023-04-01T00:29:58;10.97009277;64.24560547
71551;DHT22;59367;48.414;9.872;2023-04-01T00:31:08;10.95674133;63.98773193
71551;DHT22;59367;48.414;9.872;2023-04-01T00:32:15;10.99946594;64.39208984
71551;DHT22;59367;48.414;9.872;2023-04-01T00:33:23;10.99946594;64.28070068
71551;DHT22;59367;48.414;9.872;2023-04-01T00:34:30;10.99946594;63.99383545
71551;DHT22;59367;48.414;9.872;2023-04-01T00:35:39;10.97009277;64.07165527
71551;DHT22;59367;48.414;9.872;2023-04-01T00:36:46;10.97009277;63.95721436
71551;DHT22;59367;48.414;9.872;2023-04-01T00:37:53;10.97009277;63.82751465
71551;DHT22;59367;48.414;9.872;2023-04-01T00:39:01;10.97009277;63.79547119
71551;DHT22;59367;48.414;9.872;2023-04-01T00:40:11;10.95674133;63.76342773
71551;DHT22;59367;48.414;9.872;2023-04-01T00:41:28;10.9407196;63.98468018
71551;DHT22;59367;48.414;9.872;2023-04-01T00:42:35;10.90066528;64.1204834
71551;DHT22;59367;48.414;9.872;2023-04-01T00:43:44;10.88464355;64.24102783
71551;DHT22;59367;48.414;9.872;2023-04-01T00:44:54;10.82856369;64.37683105
71551;DHT22;59367;48.414;9.872;2023-04-01T00:46:01;10.85793686;64.45159912
71551;DHT22;59367;48.414;9.872;2023-04-01T00:47:09;10.85793686;64.29901123
71551;DHT22;59367;48.414;9.872;2023-04-01T00:48:18;10.8712883;64.32189941
71551;DHT22;59367;48.414;9.872;2023-04-01T00:49:29;10.8712883;64.39208984
71551;DHT22;59367;48.414;9.872;2023-04-01T00:50:38;10.90066528;64.08081055
71551;DHT22;59367;48.414;9.872;2023-04-01T00:51:48;10.90066528;64.08081055
71551;DHT22;59367;48.414;9.872;2023-04-01T00:52:57;10.91401672;64.05181885
71551;DHT22;59367;48.414;9.872;2023-04-01T00:54:05;10.88464355;64.4241333
71551;DHT22;59367;48.414;9.872;2023-04-01T00:55:15;10.91401672;64.4317627
71551;DHT22;59367;48.414;9.872;2023-04-01T00:56:26;10.88464355;64.57824707
71551;DHT22;59367;48.414;9.872;2023-04-01T00:57:38;10.82856369;64.74304199
71551;DHT22;59367;48.414;9.872;2023-04-01T00:58:50;10.84458542;64.52331543
71551;DHT22;59367;48.414;9.872;2023-04-01T00:59:58;10.8712883;64.72015381
71551;DHT22;59367;48.414;9.872;2023-04-01T01:01:06;10.88464355;64.50653076
71551;DHT22;59367;48.414;9.872;2023-04-01T01:02:17;10.8712883;64.46380615
71551;DHT22;59367;48.414;9.872;2023-04-01T01:03:24;10.85793686;64.46075439
71551;DHT22;59367;48.414;9.872;2023-04-01T01:04:33;10.88464355;64.70184326
71551;DHT22;59367;48.414;9.872;2023-04-01T01:06:13;10.90066528;64.38751221
71551;DHT22;59367;48.414;9.872;2023-04-01T01:07:30;10.92736816;64.43328857
71551;DHT22;59367;48.414;9.872;2023-04-01T01:08:55;10.8712883;64.91394043
71551;DHT22;59367;48.414;9.872;2023-04-01T01:10:07;10.85793686;64.96276855
71551;DHT22;59367;48.414;9.872;2023-04-01T01:11:22;10.8712883;64.99481201
71551;DHT22;59367;48.414;9.872;2023-04-01T01:12:34;10.82856369;65.12298584
71551;DHT22;59367;48.414;9.872;2023-04-01T01:13:52;10.81521225;65.36560059
71551;DHT22;59367;48.414;9.872;2023-04-01T01:15:08;10.80186081;65.05584717
71551;DHT22;59367;48.414;9.872;2023-04-01T01:16:23;10.82856369;65.39916992
71551;DHT22;59367;48.414;9.872;2023-04-01T01:17:37;10.81521225;65.41595459
71551;DHT22;59367;48.414;9.872;2023-04-01T01:18:52;10.78583908;65.42205811
71551;DHT22;59367;48.414;9.872;2023-04-01T01:20:28;10.81521225;65.43579102
71551;DHT22;59367;48.414;9.872;2023-04-01T01:23:40;10.72976303;65.88439941
71551;DHT22;59367;48.414;9.872;2023-04-01T01:25:04;10.72976303;65.93322754
71551;DHT22;59367;48.414;9.872;2023-04-01T01:26:34;10.71641159;65.91186523
71551;DHT22;59367;48.414;9.872;2023-04-01T01:27:54;10.74578476;65.92559814
71551;DHT22;59367;48.414;9.872;2023-04-01T01:29:12;10.77248764;65.93017578
71551;DHT22;59367;48.414;9.872;2023-04-01T01:30:35;10.7591362;65.70587158
71551;DHT22;59367;48.414;9.872;2023-04-01T01:31:49;10.7591362;65.74554443
71551;DHT22;59367;48.414;9.872;2023-04-01T01:33:19;10.71641159;65.89202881
71551;DHT22;59367;48.414;9.872;2023-04-01T01:34:34;10.68703842;65.97595215
71551;DHT22;59367;48.414;9.872;2023-04-01T01:35:49;10.68703842;65.94696045
71551;DHT22;59367;48.414;9.872;2023-04-01T01:37:00;10.70306015;66.08428955
71551;DHT22;59367;48.414;9.872;2023-04-01T01:38:13;10.6469841;66.00799561
71551;DHT22;59367;48.414;9.872;2023-04-01T01:39:21;10.66033554;66.09802246
71551;DHT22;59367;48.414;9.872;2023-04-01T01:40:33;10.67368698;66.13922119
71551;DHT22;59367;48.414;9.872;2023-04-01T01:41:42;10.70306015;66.0949707
71551;DHT22;59367;48.414;9.872;2023-04-01T01:42:55;10.68703842;66.11175537
71551;DHT22;59367;48.414;9.872;2023-04-01T01:44:06;10.71641159;65.87371826
71551;DHT22;59367;48.414;9.872;2023-04-01T01:45:16;10.72976303;65.93322754
71551;DHT22;59367;48.414;9.872;2023-04-01T01:46:27;10.71641159;66.02935791
71551;DHT22;59367;48.414;9.872;2023-04-01T01:47:36;10.70306015;65.83251953
71551;DHT22;59367;48.414;9.872;2023-04-01T01:48:45;10.70306015;65.77301025
71551;DHT22;59367;48.414;9.872;2023-04-01T01:49:54;10.68703842;65.9072876
71551;DHT22;59367;48.414;9.872;2023-04-01T01:51:03;10.68703842;65.88745117
71551;DHT22;59367;48.414;9.872;2023-04-01T01:52:10;10.67368698;65.78826904
71551;DHT22;59367;48.414;9.872;2023-04-01T01:53:18;10.66033554;65.75622559
71551;DHT22;59367;48.414;9.872;2023-04-01T01:54:25;10.68703842;65.6539917
71551;DHT22;59367;48.414;9.872;2023-04-01T01:55:35;10.68703842;65.6829834
71551;DHT22;59367;48.414;9.872;2023-04-01T01:56:46;10.68703842;65.58685303
71551;DHT22;59367;48.414;9.872;2023-04-01T01:57:54;10.68703842;65.54870605
71551;DHT22;59367;48.414;9.872;2023-04-01T01:59:05;10.67368698;65.41290283
71551;DHT22;59367;48.414;9.872;2023-04-01T02:00:15;10.6469841;65.53039551
71551;DHT22;59367;48.414;9.872;2023-04-01T02:01:27;10.6469841;65.38848877
71551;DHT22;59367;48.414;9.872;2023-04-01T02:02:35;10.63096237;65.39459229
71551;DHT22;59367;48.414;9.872;2023-04-01T02:03:43;10.67368698;65.2923584
71551;DHT22;59367;48.414;9.872;2023-04-01T02:04:52;10.60425568;65.19775391
71551;DHT22;59367;48.414;9.872;2023-04-01T02:06:03;10.6469841;64.92767334
71551;DHT22;59367;48.414;9.872;2023-04-01T02:07:15;10.61760712;65.02685547
71551;DHT22;59367;48.414;9.872;2023-04-01T02:08:27;10.63096237;65.0177002
71551;DHT22;59367;48.414;9.872;2023-04-01T02:09:37;10.59090424;65.12298584
71551;DHT22;59367;48.414;9.872;2023-04-01T02:10:48;10.59090424;64.94903564
71551;DHT22;59367;48.414;9.872;2023-04-01T02:11:59;10.57488251;65.10162354
71551;DHT22;59367;48.414;9.872;2023-04-01T02:13:13;10.56153107;65.2923584
71551;DHT22;59367;48.414;9.872;2023-04-01T02:14:23;10.56153107;65.15045166
71551;DHT22;59367;48.414;9.872;2023-04-01T02:15:33;10.57488251;65.18249512
71551;DHT22;59367;48.414;9.872;2023-04-01T02:16:45;10.54817963;65.02685547
71551;DHT22;59367;48.414;9.872;2023-04-01T02:17:54;10.54817963;65.01464844
71551;DHT22;59367;48.414;9.872;2023-04-01T02:19:02;10.52948761;64.9307251
71551;DHT22;59367;48.414;9.872;2023-04-01T02:20:15;10.48943329;65.15960693
71551;DHT22;59367;48.414;9.872;2023-04-01T02:21:26;10.48943329;64.99481201
71551;DHT22;59367;48.414;9.872;2023-04-01T02:22:38;10.48943329;65.02380371
71551;DHT22;59367;48.414;9.872;2023-04-01T02:23:48;10.47341156;65.09552002
71551;DHT22;59367;48.414;9.872;2023-04-01T02:24:59;10.46006012;65.31677246
71551;DHT22;59367;48.414;9.872;2023-04-01T02:26:08;10.47341156;65.24810791
71551;DHT22;59367;48.414;9.872;2023-04-01T02:27:17;10.47341156;65.32897949
71551;DHT22;59367;48.414;9.872;2023-04-01T02:28:25;10.47341156;65.41137695
71551;DHT22;59367;48.414;9.872;2023-04-01T02:29:34;10.44670868;65.50750732
71551;DHT22;59367;48.414;9.872;2023-04-01T02:30:43;10.43335724;65.49530029
71551;DHT22;59367;48.414;9.872;2023-04-01T02:31:52;10.44670868;65.33508301
71551;DHT22;59367;48.414;9.872;2023-04-01T02:33:01;10.41733551;65.59906006
71551;DHT22;59367;48.414;9.872;2023-04-01T02:34:08;10.41733551;65.52276611
71551;DHT22;59367;48.414;9.872;2023-04-01T02:35:18;10.41733551;65.61889648
71551;DHT22;59367;48.414;9.872;2023-04-01T02:36:26;10.44670868;65.46783447
71551;DHT22;59367;48.414;9.872;2023-04-01T02:37:33;10.44670868;65.71350098
71551;DHT22;59367;48.414;9.872;2023-04-01T02:38:42;10.41733551;65.74707031
71551;DHT22;59367;48.414;9.872;2023-04-01T02:39:50;10.40398407;65.9576416
71551;DHT22;59367;48.414;9.872;2023-04-01T02:41:00;10.39063263;65.78826904
71551;DHT22;59367;48.414;9.872;2023-04-01T02:42:08;10.40398407;65.77301025
71551;DHT22;59367;48.414;9.872;2023-04-01T02:43:15;10.40398407;65.94696045
71551;DHT22;59367;48.414;9.872;2023-04-01T02:44:23;10.39063263;65.82794189
71551;DHT22;59367;48.414;9.872;2023-04-01T02:45:30;10.36125565;66.02630615
71551;DHT22;59367;48.414;9.872;2023-04-01T02:46:37;10.37460709;65.82489014
71551;DHT22;59367;48.414;9.872;2023-04-01T02:47:45;10.41733551;65.84320068
71551;DHT22;59367;48.414;9.872;2023-04-01T02:48:52;10.43335724;65.66925049
71551;DHT22;59367;48.414;9.872;2023-04-01T02:50:00;10.44670868;65.63262939
71551;DHT22;59367;48.414;9.872;2023-04-01T02:51:07;10.44670868;65.5670166
71551;DHT22;59367;48.414;9.872;2023-04-01T02:52:15;10.44670868;65.5456543
71551;DHT22;59367;48.414;9.872;2023-04-01T02:53:22;10.47341156;65.41137695
71551;DHT22;59367;48.414;9.872;2023-04-01T02:54:29;10.46006012;65.7043457
71551;DHT22;59367;48.414;9.872;2023-04-01T02:55:37;10.46006012;65.6829834
71551;DHT22;59367;48.414;9.872;2023-04-01T02:56:44;10.44670868;65.60516357
71551;DHT22;59367;48.414;9.872;2023-04-01T02:57:51;10.43335724;65.56396484
71551;DHT22;59367;48.414;9.872;2023-04-01T02:58:58;10.43335724;65.66925049
71551;DHT22;59367;48.414;9.872;2023-04-01T03:00:07;10.41733551;65.66772461
71551;DHT22;59367;48.414;9.872;2023-04-01T03:01:14;10.41733551;65.68756104
71551;DHT22;59367;48.414;9.872;2023-04-01T03:02:22;10.43335724;65.73791504
71551;DHT22;59367;48.414;9.872;2023-04-01T03:03:29;10.40398407;65.75164795
71551;DHT22;59367;48.414;9.872;2023-04-01T03:04:36;10.40398407;65.61737061
71551;DHT22;59367;48.414;9.872;2023-04-01T03:05:44;10.37460709;65.98968506
71551;DHT22;59367;48.414;9.872;2023-04-01T03:06:51;10.34790421;66.07513428
71551;DHT22;59367;48.414;9.872;2023-04-01T03:07:59;10.31853104;66.25366211
71551;DHT22;59367;48.414;9.872;2023-04-01T03:09:06;10.36125565;66.25366211
71551;DHT22;59367;48.414;9.872;2023-04-01T03:10:14;10.37460709;66.28265381
71551;DHT22;59367;48.414;9.872;2023-04-01T03:11:21;10.39063263;66.25823975
71551;DHT22;59367;48.414;9.872;2023-04-01T03:12:28;10.40398407;66.1819458
71551;DHT22;59367;48.414;9.872;2023-04-01T03:13:36;10.43335724;66.09954834
71551;DHT22;59367;48.414;9.872;2023-04-01T03:14:43;10.44670868;66.03393555
71551;DHT22;59367;48.414;9.872;2023-04-01T03:15:51;10.44670868;66.05224609
71551;DHT22;59367;48.414;9.872;2023-04-01T03:16:58;10.48943329;65.94238281
71551;DHT22;59367;48.414;9.872;2023-04-01T03:18:06;10.50278473;66.12091064
71551;DHT22;59367;48.414;9.872;2023-04-01T03:19:13;10.47341156;65.59906006
71551;DHT22;59367;48.414;9.872;2023-04-01T03:20:20;10.48943329;65.69061279
71551;DHT22;59367;48.414;9.872;2023-04-01T03:21:27;10.46006012;65.6463623
71551;DHT22;59367;48.414;9.872;2023-04-01T03:22:35;10.46006012;65.44952393
71551;DHT22;59367;48.414;9.872;2023-04-01T03:23:42;10.47341156;65.21911621
71551;DHT22;59367;48.414;9.872;2023-04-01T03:24:50;10.46006012;64.93988037
71551;DHT22;59367;48.414;9.872;2023-04-01T03:25:57;10.44670868;64.77203369
71551;DHT22;59367;48.414;9.872;2023-04-01T03:27:04;10.46006012;64.67437744
71551;DHT22;59367;48.414;9.872;2023-04-01T03:28:11;10.46006012;64.35852051
71551;DHT22;59367;48.414;9.872;2023-04-01T03:29:19;10.41733551;64.51416016
71551;DHT22;59367;48.414;9.872;2023-04-01T03:30:26;10.40398407;63.84735107
71551;DHT22;59367;48.414;9.872;2023-04-01T03:31:33;10.36125565;64.04418945
71551;DHT22;59367;48.414;9.872;2023-04-01T03:32:41;10.33455276;63.96942139
71551;DHT22;59367;48.414;9.872;2023-04-01T03:33:48;10.27847672;63.77716064
71551;DHT22;59367;48.414;9.872;2023-04-01T03:34:55;10.3051796;63.83209229
71551;DHT22;59367;48.414;9.872;2023-04-01T03:36:03;10.27847672;63.75579834
71551;DHT22;59367;48.414;9.872;2023-04-01T03:37:10;10.3051796;63.88397217
71551;DHT22;59367;48.414;9.872;2023-04-01T03:38:18;10.26245499;64.16168213
71551;DHT22;59367;48.414;9.872;2023-04-01T03:39:25;10.24910355;63.63983154
71551;DHT22;59367;48.414;9.872;2023-04-01T03:40:32;10.27847672;63.58184814
71551;DHT22;59367;48.414;9.872;2023-04-01T03:41:40;10.23575211;63.94348145
71551;DHT22;59367;48.414;9.872;2023-04-01T03:42:48;10.23575211;63.77868652
71551;DHT22;59367;48.414;9.872;2023-04-01T03:43:56;10.21973038;63.8885498
71551;DHT22;59367;48.414;9.872;2023-04-01T03:45:04;10.20637894;64.27612305
71551;DHT22;59367;48.414;9.872;2023-04-01T03:46:12;10.20637894;64.07165527
71551;DHT22;59367;48.414;9.872;2023-04-01T03:47:23;10.21973038;64.21661377
71551;DHT22;59367;48.414;9.872;2023-04-01T03:48:30;10.24910355;64.09759521
71551;DHT22;59367;48.414;9.872;2023-04-01T03:49:38;10.26245499;63.99841309
71551;DHT22;59367;48.414;9.872;2023-04-01T03:50:46;10.26245499;63.95721436
71551;DHT22;59367;48.414;9.872;2023-04-01T03:51:53;10.20637894;63.94805908
71551;DHT22;59367;48.414;9.872;2023-04-01T03:53:00;10.21973038;64.21661377
71551;DHT22;59367;48.414;9.872;2023-04-01T03:54:10;10.17967606;64.15863037
71551;DHT22;59367;48.414;9.872;2023-04-01T03:55:17;10.21973038;64.31732178
71551;DHT22;59367;48.414;9.872;2023-04-01T03:56:24;10.20637894;64.20440674
71551;DHT22;59367;48.414;9.872;2023-04-01T03:57:33;10.17967606;64.15863037
71551;DHT22;59367;48.414;9.872;2023-04-01T03:58:41;10.15030289;64.18457031
71551;DHT22;59367;48.414;9.872;2023-04-01T03:59:48;10.16365433;64.37835693
71551;DHT22;59367;48.414;9.872;2023-04-01T04:00:55;10.12359619;64.36462402
71551;DHT22;59367;48.414;9.872;2023-04-01T04:02:03;10.12359619;64.50653076
71551;DHT22;59367;48.414;9.872;2023-04-01T04:03:10;10.12359619;64.68048096
71551;DHT22;59367;48.414;9.872;2023-04-01T04:04:17;10.13695145;64.57977295
71551;DHT22;59367;48.414;9.872;2023-04-01T04:05:25;10.10757446;64.88037109
71551;DHT22;59367;48.414;9.872;2023-04-01T04:06:33;10.09422302;65.00091553
71551;DHT22;59367;48.414;9.872;2023-04-01T04:07:40;10.06484985;64.84375
71551;DHT22;59367;48.414;9.872;2023-04-01T04:08:48;10.02479553;64.93988037
71551;DHT22;59367;48.414;9.872;2023-04-01T04:09:55;10.02479553;65.05126953
71551;DHT22;59367;48.414;9.872;2023-04-01T04:11:02;9.982070923;64.73846436
71551;DHT22;59367;48.414;9.872;2023-04-01T04:12:10;9.982070923;64.67895508
71551;DHT22;59367;48.414;9.872;2023-04-01T04:13:17;9.995422363;64.81170654
71551;DHT22;59367;48.414;9.872;2023-04-01T04:14:25;9.968719482;64.77661133
71551;DHT22;59367;48.414;9.872;2023-04-01T04:15:32;9.982070923;64.90020752
71551;DHT22;59367;48.414;9.872;2023-04-01T04:16:41;9.982070923;64.85900879
71551;DHT22;59367;48.414;9.872;2023-04-01T04:17:48;9.982070923;64.78881836
71551;DHT22;59367;48.414;9.872;2023-04-01T04:18:55;9.952697754;64.54772949
71551;DHT22;59367;48.414;9.872;2023-04-01T04:20:03;9.939346313;65.0970459
71551;DHT22;59367;48.414;9.872;2023-04-01T04:21:15;9.939346313;65.01464844
71551;DHT22;59367;48.414;9.872;2023-04-01T04:22:22;9.909973145;65.24658203
71551;DHT22;59367;48.414;9.872;2023-04-01T04:23:29;9.896621704;65.41748047
71551;DHT22;59367;48.414;9.872;2023-04-01T04:24:37;9.896621704;65.35644531
71551;DHT22;59367;48.414;9.872;2023-04-01T04:25:44;9.939346313;65.33355713
71551;DHT22;59367;48.414;9.872;2023-04-01T04:26:59;9.952697754;65.21453857
71551;DHT22;59367;48.414;9.872;2023-04-01T04:28:07;9.952697754;65.284729
71551;DHT22;59367;48.414;9.872;2023-04-01T04:29:14;9.939346313;65.53955078
71551;DHT22;59367;48.414;9.872;2023-04-01T04:30:22;9.925994873;65.5670166
71551;DHT22;59367;48.414;9.872;2023-04-01T04:31:29;9.952697754;65.61889648
71551;DHT22;59367;48.414;9.872;2023-04-01T04:32:37;9.982070923;65.39916992
71551;DHT22;59367;48.414;9.872;2023-04-01T04:33:44;9.982070923;65.32897949
71551;DHT22;59367;48.414;9.872;2023-04-01T04:34:51;9.995422363;65.30151367
71551;DHT22;59367;48.414;9.872;2023-04-01T04:35:59;10.0087738;65.14129639
71551;DHT22;59367;48.414;9.872;2023-04-01T04:37:07;9.995422363;64.8727417
71551;DHT22;59367;48.414;9.872;2023-04-01T04:38:14;10.0087738;64.85443115
71551;DHT22;59367;48.414;9.872;2023-04-01T04:39:21;10.0087738;64.83459473
71551;DHT22;59367;48.414;9.872;2023-04-01T04:40:28;10.0087738;64.76287842
71551;DHT22;59367;48.414;9.872;2023-04-01T04:41:36;10.0087738;64.58892822
71551;DHT22;59367;48.414;9.872;2023-04-01T04:42:43;10.03814697;64.71710205
71551;DHT22;59367;48.414;9.872;2023-04-01T04:43:56;10.0087738;64.793396
71551;DHT22;59367;48.414;9.872;2023-04-01T04:45:03;9.995422363;64.68963623
71551;DHT22;59367;48.414;9.872;2023-04-01T04:46:12;9.982070923;64.70794678
71551;DHT22;59367;48.414;9.872;2023-04-01T04:47:19;9.995422363;64.68048096
71551;DHT22;59367;48.414;9.872;2023-04-01T04:48:26;9.982070923;64.71710205
71551;DHT22;59367;48.414;9.872;2023-04-01T04:49:34;9.968719482;64.82696533
71551;DHT22;59367;48.414;9.872;2023-04-01T04:50:43;9.939346313;64.73083496
71551;DHT22;59367;48.414;9.872;2023-04-01T04:51:50;9.925994873;64.63775635
71551;DHT22;59367;48.414;9.872;2023-04-01T04:52:57;9.909973145;64.68505859
71551;DHT22;59367;48.414;9.872;2023-04-01T04:54:05;9.896621704;64.76593018
71551;DHT22;59367;48.414;9.872;2023-04-01T04:55:13;9.883270264;64.75219727
71551;DHT22;59367;48.414;9.872;2023-04-01T04:56:22;9.883270264;64.793396
71551;DHT22;59367;48.414;9.872;2023-04-01T04:57:29;9.883270264;64.61029053
71551;DHT22;59367;48.414;9.872;2023-04-01T04:58:37;9.85389328;64.55535889
71551;DHT22;59367;48.414;9.872;2023-04-01T04:59:44;9.827190399;64.55993652
71551;DHT22;59367;48.414;9.872;2023-04-01T05:00:52;9.813838959;64.92614746
71551;DHT22;59367;48.414;9.872;2023-04-01T05:01:59;9.771114349;65.04974365
71551;DHT22;59367;48.414;9.872;2023-04-01T05:03:06;9.771114349;65.14282227
71551;DHT22;59367;48.414;9.872;2023-04-01T05:04:13;9.752422333;65.31219482
71551;DHT22;59367;48.414;9.872;2023-04-01T05:05:21;9.696346283;66.00341797
71551;DHT22;59367;48.414;9.872;2023-04-01T05:06:28;9.682994843;66.47796631
71551;DHT22;59367;48.414;9.872;2023-04-01T05:07:36;9.656291962;66.58782959
71551;DHT22;59367;48.414;9.872;2023-04-01T05:08:44;9.669643402;66.6015625
71551;DHT22;59367;48.414;9.872;2023-04-01T05:09:51;9.682994843;66.31317139
71551;DHT22;59367;48.414;9.872;2023-04-01T05:10:59;9.656291962;66.46118164
71551;DHT22;59367;48.414;9.872;2023-04-01T05:12:06;9.696346283;66.34521484
71551;DHT22;59367;48.414;9.872;2023-04-01T05:13:14;9.696346283;66.36352539
71551;DHT22;59367;48.414;9.872;2023-04-01T05:14:21;9.696346283;66.29486084
71551;DHT22;59367;48.414;9.872;2023-04-01T05:15:28;9.712368011;66.4642334
71551;DHT22;59367;48.414;9.872;2023-04-01T05:16:35;9.682994843;66.7388916
71551;DHT22;59367;48.414;9.872;2023-04-01T05:17:43;9.669643402;66.86248779
71551;DHT22;59367;48.414;9.872;2023-04-01T05:18:50;9.669643402;66.76635742
71551;DHT22;59367;48.414;9.872;2023-04-01T05:19:57;9.712368011;66.73431396
71551;DHT22;59367;48.414;9.872;2023-04-01T05:21:06;9.725719452;66.90063477
71551;DHT22;59367;48.414;9.872;2023-04-01T05:22:13;9.739070892;66.81671143
71551;DHT22;59367;48.414;9.872;2023-04-01T05:23:21;9.771114349;66.79992676
71551;DHT22;59367;48.414;9.872;2023-04-01T05:24:29;9.739070892;66.88232422
71551;DHT22;59367;48.414;9.872;2023-04-01T05:25:36;9.771114349;66.63818359
71551;DHT22;59367;48.414;9.872;2023-04-01T05:26:44;9.79781723;66.6809082
71551;DHT22;59367;48.414;9.872;2023-04-01T05:27:51;9.771114349;66.51153564
71551;DHT22;59367;48.414;9.872;2023-04-01T05:28:58;9.79781723;66.4276123
71551;DHT22;59367;48.414;9.872;2023-04-01T05:30:06;9.771114349;66.36505127
71551;DHT22;59367;48.414;9.872;2023-04-01T05:31:14;9.79781723;66.4276123
71551;DHT22;59367;48.414;9.872;2023-04-01T05:32:21;9.813838959;66.39251709
71551;DHT22;59367;48.414;9.872;2023-04-01T05:33:29;9.813838959;66.41998291
71551;DHT22;59367;48.414;9.872;2023-04-01T05:34:37;9.827190399;66.23077393
71551;DHT22;59367;48.414;9.872;2023-04-01T05:35:44;9.827190399;66.21856689
71551;DHT22;59367;48.414;9.872;2023-04-01T05:36:51;9.84054184;66.12548828
71551;DHT22;59367;48.414;9.872;2023-04-01T05:37:58;9.85389328;65.93322754
71551;DHT22;59367;48.414;9.872;2023-04-01T05:39:05;9.883270264;65.73638916
71551;DHT22;59367;48.414;9.872;2023-04-01T05:40:14;9.925994873;65.80963135
71551;DHT22;59367;48.414;9.872;2023-04-01T05:41:21;9.952697754;65.69671631
71551;DHT22;59367;48.414;9.872;2023-04-01T05:42:28;9.982070923;65.53649902
71551;DHT22;59367;48.414;9.872;2023-04-01T05:43:39;10.02479553;65.52276611
71551;DHT22;59367;48.414;9.872;2023-04-01T05:44:46;10.02479553;65.38848877
71551;DHT22;59367;48.414;9.872;2023-04-01T05:45:55;10.05149841;65.49987793
71551;DHT22;59367;48.414;9.872;2023-04-01T05:47:02;10.02479553;64.84832764
71551;DHT22;59367;48.414;9.872;2023-04-01T05:48:10;10.08087158;64.97802734
71551;DHT22;59367;48.414;9.872;2023-04-01T05:49:17;10.06484985;65.10925293
71551;DHT22;59367;48.414;9.872;2023-04-01T05:50:25;10.09422302;65.1550293
71551;DHT22;59367;48.414;9.872;2023-04-01T05:51:32;10.16365433;65.17486572
71551;DHT22;59367;48.414;9.872;2023-04-01T05:52:39;10.1930275;65.12908936
71551;DHT22;59367;48.414;9.872;2023-04-01T05:53:47;10.16365433;64.88037109
71551;DHT22;59367;48.414;9.872;2023-04-01T05:54:54;10.15030289;64.3371582
71551;DHT22;59367;48.414;9.872;2023-04-01T05:56:05;10.1930275;64.33563232
71551;DHT22;59367;48.414;9.872;2023-04-01T05:57:12;10.1930275;64.48669434
71551;DHT22;59367;48.414;9.872;2023-04-01T05:58:19;10.20637894;64.55078125
71551;DHT22;59367;48.414;9.872;2023-04-01T05:59:27;10.23575211;64.60571289
71551;DHT22;59367;48.414;9.872;2023-04-01T06:00:34;10.21973038;64.46990967
71551;DHT22;59367;48.414;9.872;2023-04-01T06:01:41;10.21973038;64.34936523
71551;DHT22;59367;48.414;9.872;2023-04-01T06:02:49;10.20637894;64.71557617
71551;DHT22;59367;48.414;9.872;2023-04-01T06:03:56;10.1930275;64.71252441
71551;DHT22;59367;48.414;9.872;2023-04-01T06:05:13;10.23575211;64.63775635
71551;DHT22;59367;48.414;9.872;2023-04-01T06:06:26;10.26245499;64.73388672
71551;DHT22;59367;48.414;9.872;2023-04-01T06:07:34;10.3051796;64.57519531
71551;DHT22;59367;48.414;9.872;2023-04-01T06:08:42;10.33455276;64.90783691
71551;DHT22;59367;48.414;9.872;2023-04-01T06:09:49;10.34790421;64.59350586